sensor_id;sensor_type;location;lat;lon;timestamp;pressure;altitude;pressure_sealevel;temperature;humidity
69351;BME280;57106;51.446;-2.606;2023-02-21T00:00:28;102186.25;;;9.81;79.07
69351;BME280;57106;51.446;-2.606;2023-02-21T00:02:54;102190.10;;;9.97;78.55
69351;BME280;57106;51.446;-2.606;2023-02-21T00:05:19;102193.74;;;9.97;78.42
69351;BME280;57106;51.446;-2.606;2023-02-21T00:07:45;102193.58;;;9.83;79.01
69351;BME280;57106;51.446;-2.606;2023-02-21T00:10:12;102194.45;;;9.76;78.99
69351;BME280;57106;51.446;-2.606;2023-02-21T00:12:36;102196.42;;;9.85;79.09
69351;BME280;57106;51.446;-2.606;2023-02-21T00:15:02;102195.93;;;9.91;78.95
69351;BME280;57106;51.446;-2.606;2023-02-21T00:17:27;102192.02;;;9.94;78.86
69351;BME280;57106;51.446;-2.606;2023-02-21T00:19:57;102191.51;;;10.12;78.55
69351;BME280;57106;51.446;-2.606;2023-02-21T00:22:21;102189.06;;;10.13;78.54
69351;BME280;57106;51.446;-2.606;2023-02-21T00:24:44;102188.10;;;10.40;78.12
69351;BME280;57106;51.446;-2.606;2023-02-21T00:27:09;102187.54;;;10.49;77.24
69351;BME280;57106;51.446;-2.606;2023-02-21T00:29:35;102188.85;;;10.41;77.30
69351;BME280;57106;51.446;-2.606;2023-02-21T00:32:01;102182.85;;;10.26;78.37
69351;BME280;57106;51.446;-2.606;2023-02-21T00:34:26;102184.55;;;10.37;78.02
69351;BME280;57106;51.446;-2.606;2023-02-21T00:36:54;102185.43;;;10.41;77.35
69351;BME280;57106;51.446;-2.606;2023-02-21T00:39:17;102181.52;;;10.40;76.68
69351;BME280;57106;51.446;-2.606;2023-02-21T00:41:43;102180.85;;;10.41;76.36
69351;BME280;57106;51.446;-2.606;2023-02-21T00:44:09;102180.25;;;10.37;76.68
69351;BME280;57106;51.446;-2.606;2023-02-21T00:46:34;102177.07;;;10.36;76.91
69351;BME280;57106;51.446;-2.606;2023-02-21T00:49:00;102176.51;;;10.27;77.15
69351;BME280;57106;51.446;-2.606;2023-02-21T00:51:25;102173.09;;;10.42;76.94
69351;BME280;57106;51.446;-2.606;2023-02-21T00:53:51;102175.06;;;10.40;76.90
69351;BME280;57106;51.446;-2.606;2023-02-21T00:56:16;102170.62;;;10.18;78.01
69351;BME280;57106;51.446;-2.606;2023-02-21T00:58:42;102165.83;;;10.11;77.82
69351;BME280;57106;51.446;-2.606;2023-02-21T01:01:07;102170.23;;;10.14;77.91
69351;BME280;57106;51.446;-2.606;2023-02-21T01:03:33;102163.71;;;10.13;78.17
69351;BME280;57106;51.446;-2.606;2023-02-21T01:05:59;102161.99;;;9.76;79.60
69351;BME280;57106;51.446;-2.606;2023-02-21T01:08:24;102158.62;;;9.99;79.14
69351;BME280;57106;51.446;-2.606;2023-02-21T01:10:50;102154.51;;;9.92;78.94
69351;BME280;57106;51.446;-2.606;2023-02-21T01:13:16;102152.44;;;10.10;78.66
69351;BME280;57106;51.446;-2.606;2023-02-21T01:15:41;102149.15;;;10.07;78.85
69351;BME280;57106;51.446;-2.606;2023-02-21T01:18:06;102147.89;;;10.02;78.98
69351;BME280;57106;51.446;-2.606;2023-02-21T01:20:32;102148.27;;;10.07;78.83
69351;BME280;57106;51.446;-2.606;2023-02-21T01:25:23;102144.31;;;10.26;78.43
69351;BME280;57106;51.446;-2.606;2023-02-21T01:27:49;102139.91;;;10.36;78.68
69351;BME280;57106;51.446;-2.606;2023-02-21T01:30:14;102139.56;;;10.33;78.91
69351;BME280;57106;51.446;-2.606;2023-02-21T01:32:40;102131.03;;;10.40;78.59
69351;BME280;57106;51.446;-2.606;2023-02-21T01:35:06;102126.65;;;10.32;78.88
69351;BME280;57106;51.446;-2.606;2023-02-21T01:37:31;102122.44;;;10.14;79.03
69351;BME280;57106;51.446;-2.606;2023-02-21T01:39:56;102116.30;;;10.03;79.25
69351;BME280;57106;51.446;-2.606;2023-02-21T01:42:22;102113.85;;;10.22;79.21
69351;BME280;57106;51.446;-2.606;2023-02-21T01:47:13;102109.71;;;10.34;78.19
69351;BME280;57106;51.446;-2.606;2023-02-21T01:49:40;102109.58;;;10.41;77.81
69351;BME280;57106;51.446;-2.606;2023-02-21T01:52:04;102108.85;;;10.43;77.49
69351;BME280;57106;51.446;-2.606;2023-02-21T01:54:33;102108.68;;;10.32;77.58
69351;BME280;57106;51.446;-2.606;2023-02-21T01:56:59;102104.93;;;10.52;76.92
69351;BME280;57106;51.446;-2.606;2023-02-21T01:59:22;102105.19;;;10.32;77.21
69351;BME280;57106;51.446;-2.606;2023-02-21T02:01:59;102103.15;;;10.46;77.15
69351;BME280;57106;51.446;-2.606;2023-02-21T02:04:12;102104.63;;;10.28;77.80
69351;BME280;57106;51.446;-2.606;2023-02-21T02:06:38;102099.14;;;10.50;77.31
69351;BME280;57106;51.446;-2.606;2023-02-21T02:09:13;102096.40;;;10.48;77.31
69351;BME280;57106;51.446;-2.606;2023-02-21T02:11:45;102093.42;;;10.45;77.57
69351;BME280;57106;51.446;-2.606;2023-02-21T02:14:06;102092.80;;;10.53;77.58
69351;BME280;57106;51.446;-2.606;2023-02-21T02:16:28;102088.87;;;10.54;77.17
69351;BME280;57106;51.446;-2.606;2023-02-21T02:18:58;102083.97;;;10.61;76.85
69351;BME280;57106;51.446;-2.606;2023-02-21T02:21:31;102078.80;;;10.50;77.22
69351;BME280;57106;51.446;-2.606;2023-02-21T02:28:43;102069.69;;;10.71;77.42
69351;BME280;57106;51.446;-2.606;2023-02-21T02:35:45;102066.13;;;10.82;76.94
69351;BME280;57106;51.446;-2.606;2023-02-21T02:38:14;102057.21;;;10.65;77.00
69351;BME280;57106;51.446;-2.606;2023-02-21T02:40:42;102054.25;;;10.70;77.27
69351;BME280;57106;51.446;-2.606;2023-02-21T02:43:08;102052.37;;;10.67;77.05
69351;BME280;57106;51.446;-2.606;2023-02-21T02:45:31;102048.83;;;10.64;76.72
69351;BME280;57106;51.446;-2.606;2023-02-21T02:47:57;102047.45;;;10.65;76.72
69351;BME280;57106;51.446;-2.606;2023-02-21T02:50:19;102043.58;;;10.40;77.14
69351;BME280;57106;51.446;-2.606;2023-02-21T02:52:50;102045.29;;;10.58;76.94
69351;BME280;57106;51.446;-2.606;2023-02-21T02:57:34;102035.56;;;10.42;77.12
69351;BME280;57106;51.446;-2.606;2023-02-21T03:00:00;102032.01;;;10.41;76.77
69351;BME280;57106;51.446;-2.606;2023-02-21T03:02:38;102036.09;;;10.47;76.52
69351;BME280;57106;51.446;-2.606;2023-02-21T03:05:03;102033.87;;;10.41;76.10
69351;BME280;57106;51.446;-2.606;2023-02-21T03:07:20;102035.54;;;10.43;76.56
69351;BME280;57106;51.446;-2.606;2023-02-21T03:09:48;102037.81;;;10.47;76.24
69351;BME280;57106;51.446;-2.606;2023-02-21T03:12:14;102038.60;;;10.30;76.64
69351;BME280;57106;51.446;-2.606;2023-02-21T03:14:40;102038.70;;;10.32;76.16
69351;BME280;57106;51.446;-2.606;2023-02-21T03:17:02;102034.97;;;10.28;76.68
69351;BME280;57106;51.446;-2.606;2023-02-21T03:19:27;102036.51;;;10.25;77.08
69351;BME280;57106;51.446;-2.606;2023-02-21T03:21:53;102030.74;;;10.39;76.60
69351;BME280;57106;51.446;-2.606;2023-02-21T03:24:17;102030.84;;;10.51;76.14
69351;BME280;57106;51.446;-2.606;2023-02-21T03:26:50;102028.35;;;10.41;75.73
69351;BME280;57106;51.446;-2.606;2023-02-21T03:29:07;102023.36;;;10.35;76.04
69351;BME280;57106;51.446;-2.606;2023-02-21T03:31:36;102020.75;;;10.11;76.80
69351;BME280;57106;51.446;-2.606;2023-02-21T03:33:58;102017.64;;;10.11;76.97
69351;BME280;57106;51.446;-2.606;2023-02-21T03:36:24;102015.72;;;9.88;77.57
69351;BME280;57106;51.446;-2.606;2023-02-21T03:38:49;102011.27;;;9.96;77.62
69351;BME280;57106;51.446;-2.606;2023-02-21T03:41:15;102006.25;;;10.26;76.64
69351;BME280;57106;51.446;-2.606;2023-02-21T03:43:41;102004.87;;;10.39;75.73
69351;BME280;57106;51.446;-2.606;2023-02-21T03:46:06;102002.00;;;10.32;76.11
69351;BME280;57106;51.446;-2.606;2023-02-21T03:48:33;102001.65;;;10.37;76.40
69351;BME280;57106;51.446;-2.606;2023-02-21T03:50:57;102002.64;;;10.55;76.05
69351;BME280;57106;51.446;-2.606;2023-02-21T03:53:23;101994.90;;;10.69;74.96
69351;BME280;57106;51.446;-2.606;2023-02-21T03:55:48;101997.38;;;10.43;75.55
69351;BME280;57106;51.446;-2.606;2023-02-21T03:58:14;101996.53;;;10.08;76.68
69351;BME280;57106;51.446;-2.606;2023-02-21T04:00:39;101996.45;;;10.24;76.56
69351;BME280;57106;51.446;-2.606;2023-02-21T04:03:05;101988.70;;;10.07;77.21
69351;BME280;57106;51.446;-2.606;2023-02-21T04:05:30;101991.20;;;10.21;76.86
69351;BME280;57106;51.446;-2.606;2023-02-21T04:07:56;101988.53;;;10.19;76.51
69351;BME280;57106;51.446;-2.606;2023-02-21T04:10:22;101984.75;;;10.30;76.36
69351;BME280;57106;51.446;-2.606;2023-02-21T04:12:47;101979.35;;;10.22;76.27
69351;BME280;57106;51.446;-2.606;2023-02-21T04:15:13;101976.85;;;10.23;75.92
69351;BME280;57106;51.446;-2.606;2023-02-21T04:17:38;101975.68;;;10.29;76.17
69351;BME280;57106;51.446;-2.606;2023-02-21T04:20:05;101973.75;;;10.30;76.53
69351;BME280;57106;51.446;-2.606;2023-02-21T04:22:29;101971.68;;;10.33;76.19
69351;BME280;57106;51.446;-2.606;2023-02-21T04:24:56;101968.04;;;10.32;75.67
69351;BME280;57106;51.446;-2.606;2023-02-21T04:27:21;101966.37;;;10.39;75.75
69351;BME280;57106;51.446;-2.606;2023-02-21T04:29:46;101966.85;;;10.44;75.11
69351;BME280;57106;51.446;-2.606;2023-02-21T04:32:12;101971.46;;;10.24;75.65
69351;BME280;57106;51.446;-2.606;2023-02-21T04:34:37;101968.53;;;10.36;75.44
69351;BME280;57106;51.446;-2.606;2023-02-21T04:37:03;101969.78;;;10.14;76.47
69351;BME280;57106;51.446;-2.606;2023-02-21T04:39:28;101960.77;;;10.37;76.06
69351;BME280;57106;51.446;-2.606;2023-02-21T04:41:54;101954.86;;;10.31;75.89
69351;BME280;57106;51.446;-2.606;2023-02-21T04:44:20;101949.91;;;10.34;76.13
69351;BME280;57106;51.446;-2.606;2023-02-21T04:46:45;101951.78;;;10.28;76.32
69351;BME280;57106;51.446;-2.606;2023-02-21T04:49:12;101947.51;;;10.40;76.23
69351;BME280;57106;51.446;-2.606;2023-02-21T04:51:36;101948.17;;;10.51;75.90
69351;BME280;57106;51.446;-2.606;2023-02-21T04:54:02;101958.19;;;10.25;76.22
69351;BME280;57106;51.446;-2.606;2023-02-21T04:56:27;101959.98;;;10.25;76.50
69351;BME280;57106;51.446;-2.606;2023-02-21T04:58:54;101961.49;;;10.04;76.87
69351;BME280;57106;51.446;-2.606;2023-02-21T05:01:19;101962.97;;;9.98;76.94
69351;BME280;57106;51.446;-2.606;2023-02-21T05:03:44;101962.27;;;9.98;77.04
69351;BME280;57106;51.446;-2.606;2023-02-21T05:08:35;101957.34;;;10.08;76.05
69351;BME280;57106;51.446;-2.606;2023-02-21T05:11:01;101958.08;;;10.07;76.24
69351;BME280;57106;51.446;-2.606;2023-02-21T05:13:26;101956.31;;;9.80;76.87
69351;BME280;57106;51.446;-2.606;2023-02-21T05:15:53;101954.46;;;9.90;77.31
69351;BME280;57106;51.446;-2.606;2023-02-21T05:18:17;101951.86;;;10.01;76.70
69351;BME280;57106;51.446;-2.606;2023-02-21T05:20:43;101947.77;;;10.23;76.03
69351;BME280;57106;51.446;-2.606;2023-02-21T05:23:09;101941.05;;;10.29;75.30
69351;BME280;57106;51.446;-2.606;2023-02-21T05:25:34;101940.67;;;10.24;75.67
69351;BME280;57106;51.446;-2.606;2023-02-21T05:28:00;101935.40;;;10.25;75.68
69351;BME280;57106;51.446;-2.606;2023-02-21T05:30:26;101934.47;;;10.19;75.54
69351;BME280;57106;51.446;-2.606;2023-02-21T05:32:51;101941.34;;;10.00;75.71
69351;BME280;57106;51.446;-2.606;2023-02-21T05:35:17;101939.56;;;9.80;76.55
69351;BME280;57106;51.446;-2.606;2023-02-21T05:37:42;101934.95;;;9.98;76.02
69351;BME280;57106;51.446;-2.606;2023-02-21T05:40:10;101932.42;;;9.81;76.64
69351;BME280;57106;51.446;-2.606;2023-02-21T05:42:33;101934.50;;;10.09;76.02
69351;BME280;57106;51.446;-2.606;2023-02-21T05:44:59;101933.90;;;10.11;75.52
69351;BME280;57106;51.446;-2.606;2023-02-21T05:47:24;101931.06;;;10.10;75.58
69351;BME280;57106;51.446;-2.606;2023-02-21T05:49:50;101929.04;;;10.21;75.99
69351;BME280;57106;51.446;-2.606;2023-02-21T05:52:16;101930.65;;;10.11;75.57
69351;BME280;57106;51.446;-2.606;2023-02-21T05:54:41;101928.08;;;10.23;75.56
69351;BME280;57106;51.446;-2.606;2023-02-21T05:57:06;101927.46;;;10.20;75.59
69351;BME280;57106;51.446;-2.606;2023-02-21T05:59:32;101924.88;;;10.22;75.49
69351;BME280;57106;51.446;-2.606;2023-02-21T06:01:57;101926.84;;;10.16;75.32
69351;BME280;57106;51.446;-2.606;2023-02-21T06:04:23;101927.80;;;10.15;75.75
69351;BME280;57106;51.446;-2.606;2023-02-21T06:06:49;101925.14;;;10.24;75.49
69351;BME280;57106;51.446;-2.606;2023-02-21T06:09:14;101925.46;;;10.11;75.29
69351;BME280;57106;51.446;-2.606;2023-02-21T06:11:40;101920.09;;;10.17;75.13
69351;BME280;57106;51.446;-2.606;2023-02-21T06:14:13;101916.12;;;10.21;75.50
69351;BME280;57106;51.446;-2.606;2023-02-21T07:05:04;101887.80;;;9.84;77.06
69351;BME280;57106;51.446;-2.606;2023-02-21T07:07:28;101882.19;;;10.07;76.85
69351;BME280;57106;51.446;-2.606;2023-02-21T07:09:54;101883.02;;;10.13;76.30
69351;BME280;57106;51.446;-2.606;2023-02-21T07:12:19;101883.77;;;10.15;75.99
69351;BME280;57106;51.446;-2.606;2023-02-21T07:14:44;101880.18;;;10.28;75.04
69351;BME280;57106;51.446;-2.606;2023-02-21T07:17:10;101874.96;;;10.28;74.30
69351;BME280;57106;51.446;-2.606;2023-02-21T07:19:35;101876.07;;;10.26;74.89
69351;BME280;57106;51.446;-2.606;2023-02-21T07:22:02;101876.51;;;10.29;74.77
69351;BME280;57106;51.446;-2.606;2023-02-21T07:24:27;101876.91;;;10.21;75.28
69351;BME280;57106;51.446;-2.606;2023-02-21T07:26:52;101876.12;;;10.14;75.65
69351;BME280;57106;51.446;-2.606;2023-02-21T07:29:17;101876.21;;;10.16;74.97
69351;BME280;57106;51.446;-2.606;2023-02-21T07:31:42;101873.56;;;10.01;75.79
69351;BME280;57106;51.446;-2.606;2023-02-21T07:34:07;101874.49;;;10.03;76.06
69351;BME280;57106;51.446;-2.606;2023-02-21T07:36:32;101868.11;;;10.02;75.46
69351;BME280;57106;51.446;-2.606;2023-02-21T07:38:58;101868.56;;;10.04;75.73
69351;BME280;57106;51.446;-2.606;2023-02-21T07:41:23;101866.74;;;10.07;75.54
69351;BME280;57106;51.446;-2.606;2023-02-21T07:43:49;101872.88;;;10.06;76.30
69351;BME280;57106;51.446;-2.606;2023-02-21T07:46:15;101875.06;;;10.10;75.95
69351;BME280;57106;51.446;-2.606;2023-02-21T07:48:39;101876.29;;;9.93;75.29
69351;BME280;57106;51.446;-2.606;2023-02-21T07:51:06;101883.15;;;9.74;75.83
69351;BME280;57106;51.446;-2.606;2023-02-21T07:53:31;101887.72;;;9.76;76.28
69351;BME280;57106;51.446;-2.606;2023-02-21T07:55:56;101894.43;;;9.82;76.06
69351;BME280;57106;51.446;-2.606;2023-02-21T07:58:25;101894.87;;;9.62;76.70
69351;BME280;57106;51.446;-2.606;2023-02-21T08:00:48;101894.00;;;9.52;76.58
69351;BME280;57106;51.446;-2.606;2023-02-21T08:03:13;101898.78;;;9.42;77.63
69351;BME280;57106;51.446;-2.606;2023-02-21T08:05:39;101903.38;;;9.55;77.28
69351;BME280;57106;51.446;-2.606;2023-02-21T08:08:06;101906.75;;;9.72;79.31
69351;BME280;57106;51.446;-2.606;2023-02-21T08:10:30;101908.30;;;9.40;78.19
69351;BME280;57106;51.446;-2.606;2023-02-21T08:12:56;101906.29;;;9.58;77.93
69351;BME280;57106;51.446;-2.606;2023-02-21T08:15:21;101908.89;;;9.62;77.75
69351;BME280;57106;51.446;-2.606;2023-02-21T08:17:47;101907.35;;;9.63;77.93
69351;BME280;57106;51.446;-2.606;2023-02-21T08:20:12;101906.38;;;9.49;78.60
69351;BME280;57106;51.446;-2.606;2023-02-21T08:22:38;101904.91;;;9.72;77.86
69351;BME280;57106;51.446;-2.606;2023-02-21T08:25:04;101906.81;;;9.76;77.90
69351;BME280;57106;51.446;-2.606;2023-02-21T08:27:29;101909.44;;;9.67;78.33
69351;BME280;57106;51.446;-2.606;2023-02-21T08:29:55;101907.78;;;9.90;77.45
69351;BME280;57106;51.446;-2.606;2023-02-21T08:32:26;101904.21;;;10.08;76.79
69351;BME280;57106;51.446;-2.606;2023-02-21T08:34:47;101906.17;;;9.79;77.71
69351;BME280;57106;51.446;-2.606;2023-02-21T08:37:11;101901.48;;;9.82;76.71
69351;BME280;57106;51.446;-2.606;2023-02-21T08:39:37;101902.71;;;9.91;76.84
69351;BME280;57106;51.446;-2.606;2023-02-21T08:42:04;101899.00;;;9.89;77.17
69351;BME280;57106;51.446;-2.606;2023-02-21T08:44:28;101893.65;;;10.17;76.75
69351;BME280;57106;51.446;-2.606;2023-02-21T08:46:54;101892.16;;;10.16;76.63
69351;BME280;57106;51.446;-2.606;2023-02-21T08:49:19;101888.31;;;10.27;75.73
69351;BME280;57106;51.446;-2.606;2023-02-21T08:51:45;101885.36;;;10.38;75.20
69351;BME280;57106;51.446;-2.606;2023-02-21T08:54:11;101881.27;;;10.27;75.42
69351;BME280;57106;51.446;-2.606;2023-02-21T08:56:36;101877.76;;;10.52;74.94
69351;BME280;57106;51.446;-2.606;2023-02-21T08:59:02;101875.00;;;10.49;75.03
69351;BME280;57106;51.446;-2.606;2023-02-21T09:01:32;101872.50;;;10.26;75.25
69351;BME280;57106;51.446;-2.606;2023-02-21T09:03:52;101873.73;;;10.54;74.36
69351;BME280;57106;51.446;-2.606;2023-02-21T09:06:18;101874.76;;;10.24;74.94
69351;BME280;57106;51.446;-2.606;2023-02-21T09:08:44;101877.91;;;10.44;74.14
69351;BME280;57106;51.446;-2.606;2023-02-21T09:11:09;101880.51;;;10.48;74.29
69351;BME280;57106;51.446;-2.606;2023-02-21T09:13:34;101879.99;;;10.55;73.43
69351;BME280;57106;51.446;-2.606;2023-02-21T09:16:01;101885.97;;;10.70;72.41
69351;BME280;57106;51.446;-2.606;2023-02-21T09:18:26;101887.44;;;10.52;72.81
69351;BME280;57106;51.446;-2.606;2023-02-21T09:20:50;101887.91;;;10.57;72.70
69351;BME280;57106;51.446;-2.606;2023-02-21T09:23:16;101887.66;;;10.21;72.86
69351;BME280;57106;51.446;-2.606;2023-02-21T09:25:41;101884.04;;;10.19;74.55
69351;BME280;57106;51.446;-2.606;2023-02-21T09:28:06;101884.19;;;10.36;72.93
69351;BME280;57106;51.446;-2.606;2023-02-21T09:30:32;101882.18;;;10.47;72.49
69351;BME280;57106;51.446;-2.606;2023-02-21T09:32:57;101880.64;;;10.53;72.20
69351;BME280;57106;51.446;-2.606;2023-02-21T09:35:22;101878.79;;;10.65;70.63
69351;BME280;57106;51.446;-2.606;2023-02-21T09:37:47;101877.50;;;10.67;71.62
69351;BME280;57106;51.446;-2.606;2023-02-21T09:40:24;101872.64;;;10.62;70.04
69351;BME280;57106;51.446;-2.606;2023-02-21T09:42:38;101870.70;;;10.70;71.24
69351;BME280;57106;51.446;-2.606;2023-02-21T09:45:04;101869.83;;;10.67;71.46
69351;BME280;57106;51.446;-2.606;2023-02-21T09:47:32;101866.98;;;10.38;72.33
69351;BME280;57106;51.446;-2.606;2023-02-21T09:50:00;101862.81;;;10.03;73.22
69351;BME280;57106;51.446;-2.606;2023-02-21T09:52:29;101863.07;;;9.81;74.52
69351;BME280;57106;51.446;-2.606;2023-02-21T09:54:51;101862.42;;;10.12;73.64
69351;BME280;57106;51.446;-2.606;2023-02-21T09:57:14;101862.52;;;10.24;74.05
69351;BME280;57106;51.446;-2.606;2023-02-21T09:59:37;101862.11;;;10.23;73.67
69351;BME280;57106;51.446;-2.606;2023-02-21T10:02:15;101858.26;;;10.46;71.84
69351;BME280;57106;51.446;-2.606;2023-02-21T10:04:51;101857.14;;;10.49;72.05
69351;BME280;57106;51.446;-2.606;2023-02-21T10:06:56;101854.22;;;10.46;72.03
69351;BME280;57106;51.446;-2.606;2023-02-21T10:09:25;101856.70;;;10.72;71.11
69351;BME280;57106;51.446;-2.606;2023-02-21T10:11:54;101852.03;;;10.65;71.82
69351;BME280;57106;51.446;-2.606;2023-02-21T10:14:19;101850.28;;;10.63;72.35
69351;BME280;57106;51.446;-2.606;2023-02-21T10:16:41;101850.67;;;10.66;71.68
69351;BME280;57106;51.446;-2.606;2023-02-21T10:19:06;101850.85;;;10.73;71.24
69351;BME280;57106;51.446;-2.606;2023-02-21T10:21:29;101848.62;;;10.71;71.71
69351;BME280;57106;51.446;-2.606;2023-02-21T10:23:53;101843.60;;;10.61;71.46
69351;BME280;57106;51.446;-2.606;2023-02-21T10:26:22;101839.17;;;10.66;71.02
69351;BME280;57106;51.446;-2.606;2023-02-21T10:28:44;101836.18;;;10.67;71.26
69351;BME280;57106;51.446;-2.606;2023-02-21T10:31:13;101836.13;;;10.54;71.79
69351;BME280;57106;51.446;-2.606;2023-02-21T10:33:37;101839.04;;;10.60;72.04
69351;BME280;57106;51.446;-2.606;2023-02-21T10:36:10;101836.21;;;10.61;71.11
69351;BME280;57106;51.446;-2.606;2023-02-21T10:38:26;101837.20;;;10.55;71.75
69351;BME280;57106;51.446;-2.606;2023-02-21T10:40:54;101832.55;;;10.41;73.14
69351;BME280;57106;51.446;-2.606;2023-02-21T10:43:20;101833.24;;;10.76;71.52
69351;BME280;57106;51.446;-2.606;2023-02-21T10:45:46;101829.36;;;10.57;71.84
69351;BME280;57106;51.446;-2.606;2023-02-21T10:48:10;101825.57;;;10.41;72.62
69351;BME280;57106;51.446;-2.606;2023-02-21T10:50:40;101826.09;;;10.61;72.30
69351;BME280;57106;51.446;-2.606;2023-02-21T10:52:58;101826.87;;;10.42;73.19
69351;BME280;57106;51.446;-2.606;2023-02-21T10:55:23;101825.98;;;10.51;73.51
69351;BME280;57106;51.446;-2.606;2023-02-21T10:57:52;101824.65;;;10.66;72.98
69351;BME280;57106;51.446;-2.606;2023-02-21T11:00:22;101826.29;;;10.78;72.45
69351;BME280;57106;51.446;-2.606;2023-02-21T11:02:41;101820.43;;;10.37;72.04
69351;BME280;57106;51.446;-2.606;2023-02-21T11:05:09;101818.57;;;10.26;73.21
69351;BME280;57106;51.446;-2.606;2023-02-21T11:07:30;101815.39;;;10.42;73.22
69351;BME280;57106;51.446;-2.606;2023-02-21T11:09:56;101815.18;;;10.46;73.39
69351;BME280;57106;51.446;-2.606;2023-02-21T11:12:23;101811.40;;;10.51;72.41
69351;BME280;57106;51.446;-2.606;2023-02-21T11:17:16;101807.57;;;10.86;72.02
69351;BME280;57106;51.446;-2.606;2023-02-21T11:19:48;101804.71;;;10.58;72.66
69351;BME280;57106;51.446;-2.606;2023-02-21T11:22:03;101805.86;;;10.72;72.49
69351;BME280;57106;51.446;-2.606;2023-02-21T11:24:28;101803.75;;;10.61;73.54
69351;BME280;57106;51.446;-2.606;2023-02-21T11:26:54;101798.97;;;10.80;73.36
69351;BME280;57106;51.446;-2.606;2023-02-21T11:29:21;101796.02;;;10.87;72.99
69351;BME280;57106;51.446;-2.606;2023-02-21T11:31:44;101793.40;;;10.85;73.18
69351;BME280;57106;51.446;-2.606;2023-02-21T11:34:12;101792.18;;;11.04;73.28
69351;BME280;57106;51.446;-2.606;2023-02-21T11:36:36;101786.43;;;11.15;72.51
69351;BME280;57106;51.446;-2.606;2023-02-21T11:39:03;101784.14;;;11.13;71.13
69351;BME280;57106;51.446;-2.606;2023-02-21T11:41:28;101781.48;;;10.82;73.30
69351;BME280;57106;51.446;-2.606;2023-02-21T11:43:51;101781.00;;;11.05;72.90
69351;BME280;57106;51.446;-2.606;2023-02-21T11:46:19;101777.13;;;11.01;72.32
69351;BME280;57106;51.446;-2.606;2023-02-21T11:48:46;101779.24;;;11.21;71.99
69351;BME280;57106;51.446;-2.606;2023-02-21T11:51:25;101775.77;;;11.16;71.97
69351;BME280;57106;51.446;-2.606;2023-02-21T11:53:36;101774.94;;;11.12;71.47
69351;BME280;57106;51.446;-2.606;2023-02-21T11:56:02;101771.59;;;11.22;71.69
69351;BME280;57106;51.446;-2.606;2023-02-21T11:58:25;101772.53;;;11.24;71.93
69351;BME280;57106;51.446;-2.606;2023-02-21T12:00:50;101775.75;;;11.25;71.73
69351;BME280;57106;51.446;-2.606;2023-02-21T12:03:28;101768.69;;;11.25;71.65
69351;BME280;57106;51.446;-2.606;2023-02-21T12:05:48;101768.87;;;10.95;72.48
69351;BME280;57106;51.446;-2.606;2023-02-21T12:08:15;101770.87;;;11.24;72.34
69351;BME280;57106;51.446;-2.606;2023-02-21T12:10:40;101768.39;;;11.27;72.50
69351;BME280;57106;51.446;-2.606;2023-02-21T12:13:01;101758.15;;;11.05;72.68
69351;BME280;57106;51.446;-2.606;2023-02-21T12:15:24;101752.99;;;11.34;71.50
69351;BME280;57106;51.446;-2.606;2023-02-21T12:18:04;101750.60;;;11.29;71.59
69351;BME280;57106;51.446;-2.606;2023-02-21T12:20:24;101746.93;;;11.09;72.53
69351;BME280;57106;51.446;-2.606;2023-02-21T12:22:50;101744.34;;;11.15;72.04
69351;BME280;57106;51.446;-2.606;2023-02-21T12:25:12;101745.13;;;11.21;72.49
69351;BME280;57106;51.446;-2.606;2023-02-21T12:27:33;101743.67;;;11.18;72.89
69351;BME280;57106;51.446;-2.606;2023-02-21T12:30:05;101737.41;;;11.40;71.85
69351;BME280;57106;51.446;-2.606;2023-02-21T12:32:29;101733.61;;;11.18;72.69
69351;BME280;57106;51.446;-2.606;2023-02-21T12:34:55;101731.85;;;11.23;72.45
69351;BME280;57106;51.446;-2.606;2023-02-21T12:37:18;101730.07;;;11.23;72.80
69351;BME280;57106;51.446;-2.606;2023-02-21T12:39:47;101727.87;;;11.35;72.94
69351;BME280;57106;51.446;-2.606;2023-02-21T12:42:13;101724.13;;;11.49;72.86
69351;BME280;57106;51.446;-2.606;2023-02-21T12:44:32;101720.40;;;11.38;71.92
69351;BME280;57106;51.446;-2.606;2023-02-21T12:46:57;101717.21;;;11.53;70.57
69351;BME280;57106;51.446;-2.606;2023-02-21T12:49:22;101715.02;;;11.90;69.42
69351;BME280;57106;51.446;-2.606;2023-02-21T12:51:48;101712.28;;;11.67;69.22
69351;BME280;57106;51.446;-2.606;2023-02-21T12:54:13;101710.43;;;11.79;68.73
69351;BME280;57106;51.446;-2.606;2023-02-21T12:56:37;101700.85;;;11.68;68.91
69351;BME280;57106;51.446;-2.606;2023-02-21T12:59:05;101696.67;;;11.57;69.30
69351;BME280;57106;51.446;-2.606;2023-02-21T13:01:30;101691.49;;;11.68;68.62
69351;BME280;57106;51.446;-2.606;2023-02-21T13:03:57;101693.76;;;11.84;68.14
69351;BME280;57106;51.446;-2.606;2023-02-21T13:06:20;101697.06;;;11.96;68.59
69351;BME280;57106;51.446;-2.606;2023-02-21T13:08:50;101690.23;;;11.69;68.92
69351;BME280;57106;51.446;-2.606;2023-02-21T13:11:13;101686.14;;;11.58;69.52
69351;BME280;57106;51.446;-2.606;2023-02-21T13:13:33;101682.10;;;11.82;68.52
69351;BME280;57106;51.446;-2.606;2023-02-21T13:16:01;101677.73;;;11.70;68.85
69351;BME280;57106;51.446;-2.606;2023-02-21T13:18:25;101671.59;;;11.68;68.65
69351;BME280;57106;51.446;-2.606;2023-02-21T13:20:54;101665.17;;;11.81;66.97
69351;BME280;57106;51.446;-2.606;2023-02-21T13:25:51;101658.36;;;11.81;65.99
69351;BME280;57106;51.446;-2.606;2023-02-21T13:28:10;101651.19;;;11.77;66.14
69351;BME280;57106;51.446;-2.606;2023-02-21T13:30:37;101645.89;;;11.88;66.06
69351;BME280;57106;51.446;-2.606;2023-02-21T13:32:58;101643.02;;;12.05;65.67
69351;BME280;57106;51.446;-2.606;2023-02-21T13:35:29;101640.80;;;12.26;65.03
69351;BME280;57106;51.446;-2.606;2023-02-21T13:37:49;101639.50;;;12.47;64.58
69351;BME280;57106;51.446;-2.606;2023-02-21T13:40:20;101634.63;;;12.44;62.98
69351;BME280;57106;51.446;-2.606;2023-02-21T13:42:38;101634.88;;;12.45;64.65